createdAt,value
2024-01-29T00:01:42.431Z,1.53
2024-01-29T00:03:51.032Z,1.52
2024-01-29T00:05:59.432Z,1.47
2024-01-29T00:08:08.548Z,1.43
2024-01-29T00:10:17.317Z,1.49
2024-01-29T00:12:26.765Z,1.40
2024-01-29T00:14:34.911Z,1.34
2024-01-29T00:16:45.783Z,1.31
2024-01-29T00:18:54.544Z,1.31
2024-01-29T00:21:00.259Z,1.37
2024-01-29T00:23:08.650Z,1.28
2024-01-29T00:25:17.265Z,1.29
2024-01-29T00:27:27.678Z,1.34
2024-01-29T00:29:36.009Z,1.41
2024-01-29T00:31:47.210Z,1.36
2024-01-29T00:33:56.604Z,1.30
2024-01-29T00:36:05.732Z,1.32
2024-01-29T00:38:14.276Z,1.33
2024-01-29T00:40:23.325Z,1.32
2024-01-29T00:42:32.451Z,1.34
2024-01-29T00:44:40.902Z,1.27
2024-01-29T00:46:51.767Z,1.41
2024-01-29T00:49:00.660Z,1.29
2024-01-29T00:51:09.491Z,1.28
2024-01-29T00:53:18.077Z,1.30
2024-01-29T00:55:26.713Z,1.10
2024-01-29T00:57:35.066Z,1.01
2024-01-29T00:59:40.935Z,0.88
2024-01-29T01:01:52.193Z,0.91
2024-01-29T01:04:00.502Z,0.86
2024-01-29T01:06:08.801Z,0.69
2024-01-29T01:08:17.487Z,0.60
2024-01-29T01:10:25.696Z,0.72
2024-01-29T01:12:33.917Z,0.56
2024-01-29T01:14:40.228Z,0.47
2024-01-29T01:16:48.436Z,0.50
2024-01-29T01:18:59.651Z,0.42
2024-01-29T01:21:08.302Z,0.40
2024-01-29T01:23:17.066Z,0.38
2024-01-29T01:25:25.397Z,0.30
2024-01-29T01:27:33.588Z,0.33
2024-01-29T01:29:42.206Z,0.28
2024-01-29T01:31:51.101Z,0.21
2024-01-29T01:34:02.232Z,0.29
2024-01-29T01:36:10.946Z,0.25
2024-01-29T01:38:19.201Z,0.31
2024-01-29T01:40:24.718Z,0.41
2024-01-29T01:42:32.964Z,0.30
2024-01-29T01:44:41.677Z,0.33
2024-01-29T01:46:50.252Z,0.34
2024-01-29T01:49:02.002Z,0.30
2024-01-29T01:51:10.871Z,0.24
2024-01-29T01:53:19.111Z,0.33
2024-01-29T01:55:29.220Z,0.38
2024-01-29T01:57:37.714Z,0.39
2024-01-29T01:59:46.455Z,0.29
2024-01-29T02:01:57.096Z,0.40
2024-01-29T02:04:06.871Z,0.45
2024-01-29T02:06:16.125Z,0.35
2024-01-29T02:08:25.348Z,0.35
2024-01-29T02:10:33.950Z,0.28
2024-01-29T02:12:42.294Z,0.23
2024-01-29T02:14:55.485Z,0.35
2024-01-29T02:17:04.801Z,0.20
2024-01-29T02:19:16.995Z,0.46
2024-01-29T02:21:25.768Z,0.50
2024-01-29T02:23:36.842Z,0.39
2024-01-29T02:25:42.388Z,0.38
2024-01-29T02:27:50.735Z,0.40
2024-01-29T02:29:59.006Z,0.39
2024-01-29T02:32:09.206Z,0.38
2024-01-29T02:34:18.279Z,0.39
2024-01-29T02:36:24.404Z,0.37
2024-01-29T02:38:32.932Z,0.28
2024-01-29T02:40:44.025Z,0.14
2024-01-29T02:42:52.640Z,0.01
2024-01-29T02:45:04.737Z,-0.06
2024-01-29T02:47:13.207Z,-0.36
2024-01-29T02:49:21.735Z,-0.41
2024-01-29T02:51:30.180Z,-0.42
2024-01-29T02:53:38.518Z,-0.47
2024-01-29T02:55:50.139Z,-0.57
2024-01-29T02:57:58.505Z,-0.64
2024-01-29T03:00:07.231Z,-0.63
2024-01-29T03:02:12.859Z,-0.69
2024-01-29T03:04:21.109Z,-0.82
2024-01-29T03:06:30.157Z,-0.93
2024-01-29T03:08:40.204Z,-0.94
2024-01-29T03:10:51.560Z,-0.89
2024-01-29T03:13:00.289Z,-0.87
2024-01-29T03:15:11.278Z,-0.94
2024-01-29T03:17:19.789Z,-0.97
2024-01-29T03:19:28.106Z,-0.89
2024-01-29T03:21:36.245Z,-0.86
2024-01-29T03:23:41.949Z,-0.88
2024-01-29T03:25:52.993Z,-0.87
2024-01-29T03:28:01.349Z,-0.95
2024-01-29T03:30:11.556Z,-1.09
2024-01-29T03:32:20.141Z,-1.29
2024-01-29T03:34:28.576Z,-1.35
2024-01-29T03:36:36.910Z,-1.42
2024-01-29T03:38:45.260Z,-1.33
2024-01-29T03:40:55.997Z,-1.35
2024-01-29T03:43:04.517Z,-1.54
2024-01-29T03:45:14.718Z,-1.54
2024-01-29T03:47:23.453Z,-1.46
2024-01-29T03:49:33.820Z,-1.43
2024-01-29T03:51:42.150Z,-1.36
2024-01-29T03:53:50.956Z,-1.24
2024-01-29T03:56:04.607Z,-1.25
2024-01-29T03:58:12.855Z,-1.29
2024-01-29T04:00:24.179Z,-1.25
2024-01-29T04:02:32.458Z,-1.30
2024-01-29T04:04:38.677Z,-1.48
2024-01-29T04:06:50.010Z,-1.58
2024-01-29T04:08:58.454Z,-1.47
2024-01-29T04:11:09.528Z,-1.55
2024-01-29T04:13:15.172Z,-1.70
2024-01-29T04:15:23.753Z,-1.84
2024-01-29T04:17:32.114Z,-1.84
2024-01-29T04:19:41.109Z,-1.90
2024-01-29T04:21:49.573Z,-1.83
2024-01-29T04:23:57.869Z,-1.94
2024-01-29T04:26:09.006Z,-1.88
2024-01-29T04:28:17.572Z,-1.96
2024-01-29T04:30:26.195Z,-1.99
2024-01-29T04:32:34.790Z,-1.98
2024-01-29T04:34:43.277Z,-1.94
2024-01-29T04:36:51.498Z,-1.88
2024-01-29T04:38:57.460Z,-1.76
2024-01-29T04:41:05.487Z,-1.69
2024-01-29T04:43:16.367Z,-1.73
2024-01-29T04:45:24.664Z,-1.60
2024-01-29T04:47:33.162Z,-1.61
2024-01-29T04:49:41.528Z,-1.64
2024-01-29T04:51:50.091Z,-1.51
2024-01-29T04:53:58.550Z,-1.42
2024-01-29T04:56:08.400Z,-1.33
2024-01-29T04:58:16.809Z,-1.30
2024-01-29T05:00:25.464Z,-1.31
2024-01-29T05:02:35.332Z,-1.26
2024-01-29T05:04:43.905Z,-1.24
2024-01-29T05:06:52.445Z,-1.12
2024-01-29T05:09:02.368Z,-1.16
2024-01-29T05:11:10.628Z,-1.11
2024-01-29T05:13:22.042Z,-1.05
2024-01-29T05:15:31.199Z,-1.02
2024-01-29T05:17:39.365Z,-1.00
2024-01-29T05:19:48.937Z,-1.05
2024-01-29T05:24:06.125Z,-0.96
2024-01-29T05:26:14.585Z,-1.01
2024-01-29T05:28:23.708Z,-0.95
2024-01-29T05:30:31.908Z,-1.06
2024-01-29T05:32:41.201Z,-1.06
2024-01-29T05:34:49.758Z,-1.07
2024-01-29T05:36:58.381Z,-0.98
2024-01-29T05:39:04.675Z,-0.97
2024-01-29T05:41:14.758Z,-1.05
2024-01-29T05:43:25.855Z,-1.02
2024-01-29T05:45:36.197Z,-1.11
2024-01-29T05:47:44.523Z,-1.15
2024-01-29T05:49:53.139Z,-1.14
2024-01-29T05:52:01.471Z,-1.01
2024-01-29T05:54:09.915Z,-0.88
2024-01-29T05:56:18.321Z,-0.89
2024-01-29T05:58:32.175Z,-0.93
2024-01-29T06:00:40.840Z,-1.06
2024-01-29T06:02:51.326Z,-1.00
2024-01-29T06:05:00.152Z,-0.99
2024-01-29T06:07:07.153Z,-0.93
2024-01-29T06:09:16.825Z,-1.05
2024-01-29T06:11:25.196Z,-0.86
2024-01-29T06:13:36.263Z,-0.86
2024-01-29T06:15:45.174Z,-0.98
2024-01-29T06:17:54.119Z,-0.91
2024-01-29T06:20:15.181Z,-1.01
2024-01-29T06:22:26.621Z,-1.07
2024-01-29T06:24:34.876Z,-1.03
2024-01-29T06:26:45.306Z,-1.06
2024-01-29T06:28:58.249Z,-0.92
2024-01-29T06:31:06.958Z,-0.84
2024-01-29T06:33:15.985Z,-0.86
2024-01-29T06:35:25.370Z,-0.77
2024-01-29T06:37:35.601Z,-0.95
2024-01-29T06:39:44.867Z,-1.07
2024-01-29T06:41:53.028Z,-1.03
2024-01-29T06:44:02.770Z,-1.00
2024-01-29T06:46:11.630Z,-0.92
2024-01-29T06:48:20.153Z,-0.77
2024-01-29T06:50:28.769Z,-0.63
2024-01-29T06:52:37.211Z,-0.68
2024-01-29T06:54:45.833Z,-0.69
2024-01-29T06:56:56.876Z,-0.63
2024-01-29T06:59:08.170Z,-0.63
2024-01-29T07:01:23.892Z,-0.72
2024-01-29T07:03:32.517Z,-0.70
2024-01-29T07:05:42.234Z,-0.64
2024-01-29T07:07:50.761Z,-0.65
2024-01-29T07:09:59.252Z,-0.56
2024-01-29T07:12:09.111Z,-0.43
2024-01-29T07:14:20.386Z,-0.20
2024-01-29T07:16:28.700Z,-0.20
2024-01-29T07:18:37.699Z,-0.16
2024-01-29T07:20:46.649Z,-0.16
2024-01-29T07:22:55.236Z,-0.21
2024-01-29T07:25:03.982Z,-0.11
2024-01-29T07:27:12.357Z,-0.03
2024-01-29T07:29:23.885Z,0.01
2024-01-29T07:31:32.527Z,0.14
2024-01-29T07:33:41.145Z,0.10
2024-01-29T07:35:50.038Z,0.14
2024-01-29T07:37:58.801Z,0.07
2024-01-29T07:40:12.241Z,0.15
2024-01-29T07:42:21.601Z,0.19
2024-01-29T07:44:33.073Z,0.28
2024-01-29T07:46:41.477Z,0.27
2024-01-29T07:48:49.776Z,0.28
2024-01-29T07:51:01.392Z,0.33
2024-01-29T07:53:10.550Z,0.31
2024-01-29T07:55:20.212Z,0.40
2024-01-29T07:57:29.008Z,0.38
2024-01-29T07:59:41.198Z,0.40
2024-01-29T08:01:49.755Z,0.43
2024-01-29T08:03:58.084Z,0.39
2024-01-29T08:06:06.736Z,0.56
2024-01-29T08:08:15.826Z,0.51
2024-01-29T08:10:24.594Z,0.57
2024-01-29T08:12:33.037Z,0.65
2024-01-29T08:14:44.151Z,0.70
2024-01-29T08:16:52.856Z,0.60
2024-01-29T08:18:58.727Z,0.66
2024-01-29T08:21:08.147Z,0.68
2024-01-29T08:23:16.705Z,0.83
2024-01-29T08:25:26.468Z,0.84
2024-01-29T08:27:35.095Z,0.97
2024-01-29T08:29:48.276Z,1.18
2024-01-29T08:31:56.489Z,1.13
2024-01-29T08:34:06.142Z,1.18
2024-01-29T08:36:15.306Z,1.35
2024-01-29T08:38:24.355Z,1.34
2024-01-29T08:40:33.369Z,1.53
2024-01-29T08:42:42.029Z,1.54
2024-01-29T08:44:57.394Z,1.68
2024-01-29T08:47:06.602Z,1.59
2024-01-29T08:49:15.899Z,1.59
2024-01-29T08:51:24.343Z,1.79
2024-01-29T08:53:32.704Z,1.93
2024-01-29T08:55:43.035Z,1.97
2024-01-29T08:57:51.482Z,2.16
2024-01-29T09:00:03.313Z,2.06
2024-01-29T09:02:12.709Z,2.14
2024-01-29T09:04:18.344Z,2.15
2024-01-29T09:06:26.928Z,2.20
2024-01-29T09:08:35.636Z,2.36
2024-01-29T09:10:45.918Z,2.38
2024-01-29T09:12:54.885Z,2.65
2024-01-29T09:15:05.868Z,2.62
2024-01-29T09:17:14.332Z,2.59
2024-01-29T09:19:25.302Z,2.92
2024-01-29T09:21:36.665Z,2.90
2024-01-29T09:23:45.148Z,3.33
2024-01-29T09:25:50.692Z,4.53
2024-01-29T09:27:59.254Z,5.40
2024-01-29T09:30:12.291Z,6.58
2024-01-29T09:32:20.852Z,8.08
2024-01-29T09:34:26.984Z,9.78
2024-01-29T09:36:35.695Z,11.21
2024-01-29T09:38:44.105Z,11.49
2024-01-29T09:40:53.042Z,11.98
2024-01-29T09:43:04.014Z,12.63
2024-01-29T09:45:17.774Z,13.06
2024-01-29T09:47:27.025Z,13.48
2024-01-29T09:49:36.548Z,13.20
2024-01-29T09:51:47.961Z,13.54
2024-01-29T09:53:59.493Z,13.70
2024-01-29T09:56:08.725Z,13.56
2024-01-29T09:58:17.308Z,13.33
2024-01-29T10:00:31.963Z,13.06
2024-01-29T10:02:45.766Z,13.74
2024-01-29T10:04:54.855Z,12.04
2024-01-29T10:07:04.271Z,13.27
2024-01-29T10:09:13.405Z,13.37
2024-01-29T10:11:22.766Z,14.06
2024-01-29T10:13:31.098Z,13.34
2024-01-29T10:15:42.650Z,9.93
2024-01-29T10:17:50.971Z,7.80
2024-01-29T10:20:00.547Z,8.55
2024-01-29T10:22:15.460Z,9.13
2024-01-29T10:24:24.390Z,10.99
2024-01-29T10:26:32.959Z,10.57
2024-01-29T10:28:41.486Z,11.49
2024-01-29T10:30:55.669Z,12.32
2024-01-29T10:33:05.408Z,13.22
2024-01-29T10:35:14.155Z,12.22
2024-01-29T10:37:25.410Z,13.23
2024-01-29T10:39:41.258Z,12.63
2024-01-29T10:41:56.008Z,13.23
2024-01-29T10:44:08.301Z,12.53
2024-01-29T10:46:22.780Z,12.80
2024-01-29T10:48:32.600Z,13.06
2024-01-29T10:50:41.080Z,12.44
2024-01-29T10:52:51.606Z,13.01
2024-01-29T10:55:01.758Z,12.66
2024-01-29T10:57:12.011Z,12.21
2024-01-29T10:59:22.531Z,12.48
2024-01-29T11:01:35.740Z,12.10
2024-01-29T11:03:46.101Z,11.62
2024-01-29T11:06:01.264Z,10.84
2024-01-29T11:08:14.700Z,9.54
2024-01-29T11:10:26.107Z,7.96
2024-01-29T11:12:36.249Z,7.95
2024-01-29T11:14:49.227Z,8.00
2024-01-29T11:17:00.937Z,7.63
2024-01-29T11:19:10.077Z,7.13
2024-01-29T11:21:18.581Z,7.17
2024-01-29T11:23:31.035Z,7.32
2024-01-29T11:25:42.599Z,7.36
2024-01-29T11:27:53.439Z,7.23
2024-01-29T11:30:01.693Z,7.33
2024-01-29T11:32:20.038Z,7.04
2024-01-29T11:34:31.633Z,7.05
2024-01-29T11:36:41.173Z,7.17
2024-01-29T11:38:49.985Z,7.04
2024-01-29T11:41:04.692Z,7.24
2024-01-29T11:43:17.442Z,7.38
2024-01-29T11:45:28.228Z,7.26
2024-01-29T11:47:39.192Z,7.41
2024-01-29T11:49:50.127Z,7.37
2024-01-29T11:52:00.227Z,7.40
2024-01-29T11:54:09.721Z,7.62
2024-01-29T11:56:18.168Z,7.80
2024-01-29T11:58:28.561Z,7.77
2024-01-29T12:00:34.292Z,7.89
2024-01-29T12:02:45.585Z,7.91
2024-01-29T12:04:53.813Z,7.96
2024-01-29T12:07:06.206Z,8.01
2024-01-29T12:09:15.926Z,8.10
2024-01-29T12:11:26.365Z,8.26
2024-01-29T12:13:35.392Z,8.42
2024-01-29T12:15:44.061Z,8.48
2024-01-29T12:17:55.865Z,8.52
2024-01-29T12:20:05.567Z,8.43
2024-01-29T12:22:16.951Z,8.47
2024-01-29T12:24:25.516Z,8.59
2024-01-29T12:26:35.040Z,8.57
2024-01-29T12:28:43.932Z,8.63
2024-01-29T12:30:59.704Z,8.92
2024-01-29T12:33:11.933Z,8.97
2024-01-29T12:35:30.413Z,9.00
2024-01-29T12:37:40.974Z,9.05
2024-01-29T12:39:54.201Z,9.18
2024-01-29T12:42:02.743Z,9.10
2024-01-29T12:44:15.225Z,9.21
2024-01-29T12:46:24.705Z,9.29
2024-01-29T12:48:36.094Z,9.26
2024-01-29T12:50:45.643Z,9.39
2024-01-29T12:52:54.306Z,9.45
2024-01-29T12:55:02.794Z,9.58
2024-01-29T12:57:08.613Z,9.68
2024-01-29T12:59:17.018Z,9.69
2024-01-29T13:01:25.540Z,9.86
2024-01-29T13:03:41.418Z,9.93
2024-01-29T13:05:50.557Z,9.99
2024-01-29T13:07:58.940Z,10.14
2024-01-29T13:10:10.457Z,9.93
2024-01-29T13:12:18.834Z,10.02
2024-01-29T13:14:28.391Z,10.03
2024-01-29T13:16:38.944Z,10.11
2024-01-29T13:18:50.214Z,10.26
2024-01-29T13:20:58.854Z,10.20
2024-01-29T13:23:10.983Z,10.31
2024-01-29T13:25:19.623Z,10.59
2024-01-29T13:27:27.887Z,10.58
2024-01-29T13:29:36.100Z,10.57
2024-01-29T13:31:45.746Z,10.57
2024-01-29T13:33:57.862Z,10.53
2024-01-29T13:36:06.916Z,10.59
2024-01-29T13:38:15.776Z,10.62
2024-01-29T13:40:24.070Z,10.61
2024-01-29T13:42:34.246Z,10.62
2024-01-29T13:44:43.252Z,10.57
2024-01-29T13:46:52.009Z,10.52
2024-01-29T13:49:04.143Z,10.38
2024-01-29T13:51:12.867Z,10.44
2024-01-29T13:53:21.185Z,10.43
2024-01-29T13:55:29.525Z,10.34
2024-01-29T13:57:35.682Z,10.35
2024-01-29T13:59:43.998Z,10.39
2024-01-29T14:01:52.287Z,10.47
2024-01-29T14:04:03.188Z,10.46
2024-01-29T14:06:09.000Z,10.43
2024-01-29T14:08:17.193Z,10.49
2024-01-29T14:10:27.400Z,10.42
2024-01-29T14:12:35.737Z,10.51
2024-01-29T14:14:47.554Z,10.56
2024-01-29T14:16:56.794Z,10.57
2024-01-29T14:19:07.709Z,10.53
2024-01-29T14:21:16.197Z,10.50
2024-01-29T14:23:24.736Z,10.50
2024-01-29T14:25:32.994Z,10.56
2024-01-29T14:27:41.307Z,10.57
2024-01-29T14:29:52.851Z,10.55
2024-01-29T14:32:01.202Z,10.57
2024-01-29T14:34:12.377Z,10.48
2024-01-29T14:36:21.262Z,10.48
2024-01-29T14:38:31.789Z,10.47
2024-01-29T14:40:41.937Z,10.44
2024-01-29T14:42:47.971Z,10.42
2024-01-29T14:44:57.212Z,10.42
2024-01-29T14:47:05.660Z,10.39
2024-01-29T14:49:17.989Z,10.34
2024-01-29T14:51:26.573Z,10.35
2024-01-29T14:53:35.201Z,10.36
2024-01-29T14:55:44.207Z,10.43
2024-01-29T14:57:53.132Z,10.32
2024-01-29T15:00:03.026Z,10.49
2024-01-29T15:02:11.404Z,10.54
2024-01-29T15:04:22.881Z,10.51
2024-01-29T15:06:31.669Z,10.37
2024-01-29T15:08:40.616Z,10.28
2024-01-29T15:10:54.429Z,10.20
2024-01-29T15:13:03.229Z,10.13
2024-01-29T15:15:15.690Z,10.04
2024-01-29T15:17:25.924Z,9.95
2024-01-29T15:19:37.274Z,9.84
2024-01-29T15:21:45.709Z,9.78
2024-01-29T15:23:54.779Z,9.75
2024-01-29T15:26:05.151Z,9.71
2024-01-29T15:28:13.894Z,9.64
2024-01-29T15:30:22.404Z,9.58
2024-01-29T15:32:30.922Z,9.49
2024-01-29T15:34:49.238Z,9.46
2024-01-29T15:36:57.893Z,9.46
2024-01-29T15:39:09.052Z,9.45
2024-01-29T15:41:21.015Z,9.45
2024-01-29T15:43:34.608Z,9.38
2024-01-29T15:45:48.255Z,9.27
2024-01-29T15:47:59.007Z,9.21
2024-01-29T15:50:10.718Z,9.13
2024-01-29T15:52:19.385Z,9.10
2024-01-29T15:54:25.149Z,9.04
2024-01-29T15:56:33.880Z,9.09
2024-01-29T15:58:42.140Z,8.92
2024-01-29T16:00:50.553Z,8.84
2024-01-29T16:02:59.061Z,8.70
2024-01-29T16:05:11.006Z,8.49
2024-01-29T16:07:16.643Z,8.41
2024-01-29T16:09:27.606Z,8.38
2024-01-29T16:11:35.916Z,8.23
2024-01-29T16:13:44.363Z,8.10
2024-01-29T16:15:52.907Z,8.11
2024-01-29T16:18:01.127Z,8.12
2024-01-29T16:20:13.555Z,8.23
2024-01-29T16:22:21.998Z,8.27
2024-01-29T16:24:30.854Z,8.34
2024-01-29T16:26:39.976Z,8.54
2024-01-29T16:28:49.153Z,8.33
2024-01-29T16:30:57.512Z,8.38
2024-01-29T16:33:08.561Z,8.30
2024-01-29T16:35:20.512Z,8.21
2024-01-29T16:37:29.246Z,8.25
2024-01-29T16:39:39.384Z,8.20
2024-01-29T16:41:47.625Z,8.17
2024-01-29T16:43:57.452Z,8.20
2024-01-29T16:46:10.406Z,8.16
2024-01-29T16:48:19.410Z,8.09
2024-01-29T16:50:30.264Z,8.03
2024-01-29T16:52:38.591Z,7.96
2024-01-29T16:54:44.239Z,7.91
2024-01-29T16:56:52.445Z,7.93
2024-01-29T16:59:01.880Z,8.01
2024-01-29T17:01:10.451Z,7.90
2024-01-29T17:03:19.165Z,7.93
2024-01-29T17:05:30.657Z,7.84
2024-01-29T17:07:39.163Z,7.80
2024-01-29T17:09:47.537Z,7.83
2024-01-29T17:11:53.603Z,7.87
2024-01-29T17:14:02.316Z,8.03
2024-01-29T17:16:10.952Z,7.96
2024-01-29T17:18:22.745Z,7.83
2024-01-29T17:20:33.923Z,7.82
2024-01-29T17:22:42.472Z,7.96
2024-01-29T17:24:50.655Z,7.92
2024-01-29T17:26:58.915Z,7.65
2024-01-29T17:29:07.321Z,7.52
2024-01-29T17:31:15.848Z,7.55
2024-01-29T17:33:24.239Z,7.45
2024-01-29T17:35:35.386Z,7.47
2024-01-29T17:37:43.669Z,7.57
2024-01-29T17:39:53.956Z,7.46
2024-01-29T17:42:05.301Z,7.35
2024-01-29T17:44:13.515Z,7.27
2024-01-29T17:46:22.206Z,7.27
2024-01-29T17:48:30.905Z,7.27
2024-01-29T17:50:42.401Z,7.28
2024-01-29T17:52:52.239Z,7.26
2024-01-29T17:55:00.821Z,7.26
2024-01-29T17:57:09.417Z,7.23
2024-01-29T17:59:17.905Z,7.23
2024-01-29T18:01:26.295Z,7.58
2024-01-29T18:03:34.809Z,7.52
2024-01-29T18:05:47.356Z,7.37
2024-01-29T18:07:53.185Z,7.26
2024-01-29T18:10:01.865Z,7.19
2024-01-29T18:12:11.825Z,7.11
2024-01-29T18:14:20.756Z,7.03
2024-01-29T18:16:27.006Z,6.96
2024-01-29T18:18:35.524Z,6.89
2024-01-29T18:20:44.218Z,6.93
2024-01-29T18:22:52.349Z,6.90
2024-01-29T18:25:00.856Z,6.89
2024-01-29T18:27:06.426Z,6.92
2024-01-29T18:29:17.291Z,6.91
2024-01-29T18:31:25.425Z,7.01
2024-01-29T18:33:33.761Z,6.96
2024-01-29T18:35:42.732Z,6.85
2024-01-29T18:37:50.892Z,6.91
2024-01-29T18:40:00.918Z,6.98
2024-01-29T18:42:09.592Z,6.94
2024-01-29T18:44:19.128Z,6.98
2024-01-29T18:46:27.664Z,7.06
2024-01-29T18:48:36.168Z,7.09
2024-01-29T18:50:44.680Z,7.11
2024-01-29T18:52:55.830Z,6.90
2024-01-29T18:55:04.204Z,6.74
2024-01-29T18:57:12.491Z,6.77
2024-01-29T18:59:20.970Z,6.75
2024-01-29T19:01:29.325Z,6.64
2024-01-29T19:03:37.907Z,6.62
2024-01-29T19:05:46.227Z,6.51
2024-01-29T19:07:57.046Z,6.57
2024-01-29T19:10:05.620Z,6.72
2024-01-29T19:12:13.835Z,6.61
2024-01-29T19:14:24.049Z,6.62
2024-01-29T19:16:32.274Z,6.58
2024-01-29T19:18:40.772Z,6.53
2024-01-29T19:20:49.310Z,6.74
2024-01-29T19:22:57.648Z,6.73
2024-01-29T19:25:07.234Z,6.81
2024-01-29T19:27:15.691Z,6.77
2024-01-29T19:29:24.253Z,6.66
2024-01-29T19:31:32.833Z,6.55
2024-01-29T19:33:41.596Z,6.48
2024-01-29T19:35:52.513Z,6.41
2024-01-29T19:38:05.833Z,6.41
2024-01-29T19:40:15.044Z,6.32
2024-01-29T19:42:23.421Z,6.31
2024-01-29T19:44:32.347Z,6.31
2024-01-29T19:46:46.606Z,6.35
2024-01-29T19:48:57.575Z,6.48
2024-01-29T19:51:06.445Z,6.45
2024-01-29T19:53:17.483Z,6.28
2024-01-29T19:55:26.105Z,6.06
2024-01-29T19:57:37.900Z,5.94
2024-01-29T19:59:46.549Z,5.70
2024-01-29T20:01:58.527Z,5.50
2024-01-29T20:04:07.695Z,5.39
2024-01-29T20:06:16.770Z,5.24
2024-01-29T20:08:33.329Z,5.18
2024-01-29T20:10:42.436Z,5.07
2024-01-29T20:12:55.357Z,4.95
2024-01-29T20:15:09.282Z,4.92
2024-01-29T20:17:29.583Z,4.77
2024-01-29T20:19:41.619Z,4.68
2024-01-29T20:21:50.743Z,4.61
2024-01-29T20:24:02.491Z,4.52
2024-01-29T20:26:12.725Z,4.41
2024-01-29T20:28:21.002Z,4.33
2024-01-29T20:30:32.902Z,4.22
2024-01-29T20:32:45.995Z,4.03
2024-01-29T20:34:58.158Z,4.07
2024-01-29T20:37:09.615Z,4.39
2024-01-29T20:39:24.235Z,4.38
2024-01-29T20:41:42.408Z,4.64
2024-01-29T20:43:52.896Z,4.87
2024-01-29T20:46:01.314Z,4.98
2024-01-29T20:48:10.963Z,4.97
2024-01-29T20:50:24.813Z,4.98
2024-01-29T20:52:35.063Z,5.05
2024-01-29T20:54:49.406Z,5.34
2024-01-29T20:57:01.547Z,5.35
2024-01-29T20:59:12.487Z,5.25
2024-01-29T21:01:39.332Z,5.30
2024-01-29T21:06:20.530Z,5.38
2024-01-29T21:08:32.362Z,5.47
2024-01-29T21:10:44.105Z,5.41
2024-01-29T21:12:53.055Z,5.16
2024-01-29T21:15:02.356Z,4.97
2024-01-29T21:17:12.276Z,4.55
2024-01-29T21:19:19.641Z,4.26
2024-01-29T21:21:30.056Z,4.03
2024-01-29T21:23:41.081Z,3.77
2024-01-29T21:25:52.194Z,3.77
2024-01-29T21:28:01.600Z,3.71
2024-01-29T21:30:16.161Z,3.56
2024-01-29T21:32:27.208Z,3.40
2024-01-29T21:34:35.715Z,3.29
2024-01-29T21:36:43.914Z,3.29
2024-01-29T21:38:52.184Z,3.30
2024-01-29T21:41:04.311Z,3.27
2024-01-29T21:43:15.736Z,3.17
2024-01-29T21:45:24.129Z,3.16
2024-01-29T21:47:32.879Z,3.19
2024-01-29T21:49:41.328Z,3.19
2024-01-29T21:51:55.889Z,3.25
2024-01-29T21:54:16.116Z,3.29
2024-01-29T21:56:30.109Z,3.42
2024-01-29T21:58:35.874Z,3.46
2024-01-29T22:00:45.449Z,3.31
2024-01-29T22:02:56.429Z,3.26
2024-01-29T22:05:04.953Z,3.33
2024-01-29T22:07:15.236Z,3.61
2024-01-29T22:09:23.667Z,3.73
2024-01-29T22:11:34.717Z,3.74
2024-01-29T22:13:43.066Z,3.68
2024-01-29T22:15:51.213Z,3.84
2024-01-29T22:17:59.562Z,3.76
2024-01-29T22:20:06.281Z,3.71
2024-01-29T22:22:16.987Z,3.60
2024-01-29T22:24:26.191Z,3.59
2024-01-29T22:26:36.980Z,3.52
2024-01-29T22:28:45.006Z,3.56
2024-01-29T22:30:50.698Z,3.62
2024-01-29T22:32:59.685Z,3.69
2024-01-29T22:35:08.369Z,3.63
2024-01-29T22:37:17.160Z,3.53
2024-01-29T22:39:25.694Z,3.54
2024-01-29T22:41:34.015Z,3.55
2024-01-29T22:43:42.011Z,3.48
2024-01-29T22:45:50.179Z,3.34
2024-01-29T22:48:00.948Z,3.43
2024-01-29T22:50:11.122Z,3.46
2024-01-29T22:52:16.643Z,3.84
2024-01-29T22:54:24.989Z,3.93
2024-01-29T22:56:33.322Z,3.90
2024-01-29T22:58:45.458Z,4.04
2024-01-29T23:00:55.143Z,3.82
2024-01-29T23:03:04.407Z,3.49
2024-01-29T23:05:12.609Z,3.53
2024-01-29T23:07:20.535Z,3.62
2024-01-29T23:09:28.860Z,3.58
2024-01-29T23:11:37.204Z,3.53
2024-01-29T23:13:47.962Z,3.53
2024-01-29T23:15:53.549Z,3.36
2024-01-29T23:18:02.076Z,3.27
2024-01-29T23:20:11.698Z,3.27
2024-01-29T23:22:19.925Z,3.20
2024-01-29T23:24:28.072Z,3.10
2024-01-29T23:26:36.039Z,3.37
2024-01-29T23:28:44.371Z,3.54
2024-01-29T23:30:54.955Z,3.59
2024-01-29T23:33:04.409Z,3.78
2024-01-29T23:35:12.794Z,3.83
2024-01-29T23:37:49.827Z,3.76
2024-01-29T23:39:58.545Z,3.72
2024-01-29T23:42:05.242Z,3.70
2024-01-29T23:44:13.384Z,4.06
2024-01-29T23:46:24.147Z,4.10
2024-01-29T23:48:34.416Z,4.01
2024-01-29T23:50:43.155Z,3.90
2024-01-29T23:52:51.512Z,3.77
2024-01-29T23:54:59.936Z,3.78
2024-01-29T23:57:08.917Z,3.76
2024-01-29T23:59:19.289Z,3.67
